createdAt,value
2023-01-08T00:02:49.999Z,4.30
2023-01-08T00:05:53.291Z,4.30
2023-01-08T00:08:56.459Z,4.30
2023-01-08T00:11:59.597Z,4.20
2023-01-08T00:15:04.181Z,4.20
2023-01-08T00:18:07.360Z,4.20
2023-01-08T00:21:10.804Z,4.10
2023-01-08T00:24:13.926Z,4.20
2023-01-08T00:27:17.054Z,4.10
2023-01-08T00:30:21.590Z,4.10
2023-01-08T00:33:24.760Z,4.10
2023-01-08T00:36:28.023Z,4.10
2023-01-08T00:39:31.190Z,4.00
2023-01-08T00:42:34.329Z,4.00
2023-01-08T00:45:38.873Z,4.00
2023-01-08T00:48:42.117Z,3.90
2023-01-08T00:51:45.304Z,3.90
2023-01-08T00:54:48.431Z,3.90
2023-01-08T00:57:51.614Z,3.90
2023-01-08T01:00:56.174Z,3.90
2023-01-08T01:03:59.381Z,3.90
2023-01-08T01:07:02.533Z,3.90
2023-01-08T01:10:06.479Z,3.90
2023-01-08T01:13:09.710Z,3.90
2023-01-08T01:16:14.240Z,3.80
2023-01-08T01:19:19.028Z,3.70
2023-01-08T01:22:22.147Z,3.70
2023-01-08T01:25:25.304Z,3.70
2023-01-08T01:28:28.449Z,3.70
2023-01-08T01:31:33.497Z,3.60
2023-01-08T01:34:36.781Z,3.60
2023-01-08T01:37:39.912Z,3.50
2023-01-08T01:40:43.431Z,3.50
2023-01-08T01:43:46.581Z,3.50
2023-01-08T01:46:51.609Z,3.50
2023-01-08T01:49:59.719Z,3.50
2023-01-08T01:53:06.801Z,3.50
2023-01-08T01:56:10.760Z,3.50
2023-01-08T01:59:14.735Z,3.50
2023-01-08T02:02:21.998Z,3.40
2023-01-08T02:05:33.396Z,3.40
2023-01-08T02:08:43.502Z,3.40
2023-01-08T02:12:11.541Z,3.30
2023-01-08T02:15:22.160Z,3.30
2023-01-08T02:18:32.527Z,3.30
2023-01-08T02:21:50.510Z,3.30
2023-01-08T02:24:57.452Z,3.30
2023-01-08T02:28:03.393Z,3.30
2023-01-08T02:31:08.033Z,3.20
2023-01-08T02:34:12.431Z,3.30
2023-01-08T02:37:15.769Z,3.20
2023-01-08T02:40:26.017Z,3.30
2023-01-08T02:43:37.904Z,3.20
2023-01-08T02:46:43.098Z,3.20
2023-01-08T02:49:51.868Z,3.30
2023-01-08T02:53:02.319Z,3.20
2023-01-08T02:56:09.369Z,3.20
2023-01-08T02:59:15.475Z,3.20
2023-01-08T03:02:19.041Z,3.20
2023-01-08T03:05:27.294Z,3.20
2023-01-08T03:08:31.295Z,3.20
2023-01-08T03:11:40.350Z,3.10
2023-01-08T03:14:49.019Z,3.20
2023-01-08T03:17:55.024Z,3.10
2023-01-08T03:20:58.350Z,3.10
2023-01-08T03:24:02.374Z,3.10
2023-01-08T03:27:08.124Z,3.10
2023-01-08T03:30:13.966Z,3.10
2023-01-08T03:33:19.046Z,3.20
2023-01-08T03:36:25.624Z,3.20
2023-01-08T03:39:32.416Z,3.10
2023-01-08T03:42:35.651Z,3.10
2023-01-08T03:45:46.017Z,3.10
2023-01-08T03:48:50.551Z,3.10
2023-01-08T03:51:53.702Z,3.10
2023-01-08T03:54:57.183Z,3.00
2023-01-08T03:58:00.298Z,3.00
2023-01-08T04:01:04.911Z,3.00
2023-01-08T04:04:08.385Z,3.00
2023-01-08T04:07:12.242Z,2.90
2023-01-08T04:10:15.438Z,2.90
2023-01-08T04:13:18.585Z,2.90
2023-01-08T04:16:23.145Z,2.90
2023-01-08T04:19:26.313Z,2.90
2023-01-08T04:22:29.413Z,2.80
2023-01-08T04:25:32.530Z,2.80
2023-01-08T04:28:36.051Z,2.80
2023-01-08T04:31:40.599Z,2.80
2023-01-08T04:34:43.737Z,2.70
2023-01-08T04:37:46.872Z,2.60
2023-01-08T04:40:49.984Z,2.50
2023-01-08T04:43:53.113Z,2.40
2023-01-08T04:46:57.603Z,2.30
2023-01-08T04:50:00.813Z,2.10
2023-01-08T04:53:03.952Z,2.10
2023-01-08T04:56:08.737Z,2.00
2023-01-08T04:59:11.863Z,2.00
2023-01-08T05:02:16.546Z,2.00
2023-01-08T05:05:19.837Z,2.00
2023-01-08T05:08:22.955Z,2.00
2023-01-08T05:11:26.647Z,1.80
2023-01-08T05:14:29.735Z,1.80
2023-01-08T05:17:34.255Z,1.80
2023-01-08T05:20:37.388Z,1.80
2023-01-08T05:23:40.550Z,1.90
2023-01-08T05:26:43.666Z,1.90
2023-01-08T05:29:46.765Z,2.00
2023-01-08T05:32:51.248Z,2.00
2023-01-08T05:35:54.655Z,2.10
2023-01-08T05:38:57.847Z,2.10
2023-01-08T05:42:00.942Z,2.10
2023-01-08T05:45:04.152Z,2.20
2023-01-08T05:48:09.204Z,2.20
2023-01-08T05:51:12.319Z,2.30
2023-01-08T05:54:15.524Z,2.30
2023-01-08T05:57:18.692Z,2.20
2023-01-08T06:00:21.967Z,2.20
2023-01-08T06:03:26.477Z,2.20
2023-01-08T06:06:29.672Z,2.20
2023-01-08T06:09:32.787Z,2.30
2023-01-08T06:12:35.869Z,2.20
2023-01-08T06:15:40.082Z,2.20
2023-01-08T06:18:44.728Z,2.20
2023-01-08T06:21:47.905Z,2.20
2023-01-08T06:24:51.040Z,2.20
2023-01-08T06:27:54.417Z,2.30
2023-01-08T06:30:58.967Z,2.20
2023-01-08T06:34:03.703Z,2.20
2023-01-08T06:37:06.903Z,2.30
2023-01-08T06:40:11.263Z,2.20
2023-01-08T06:43:14.481Z,2.20
2023-01-08T06:46:17.656Z,2.10
2023-01-08T06:49:22.746Z,2.20
2023-01-08T06:52:25.910Z,2.20
2023-01-08T06:55:30.220Z,2.20
2023-01-08T06:58:33.322Z,2.30
2023-01-08T07:01:36.547Z,2.30
2023-01-08T07:04:41.121Z,2.30
2023-01-08T07:07:44.257Z,2.40
2023-01-08T07:10:47.426Z,2.40
2023-01-08T07:13:50.827Z,2.50
2023-01-08T07:16:54.008Z,2.50
2023-01-08T07:19:58.494Z,2.60
2023-01-08T07:23:03.447Z,2.60
2023-01-08T07:26:08.553Z,2.70
2023-01-08T07:29:11.727Z,2.60
2023-01-08T07:32:14.845Z,2.70
2023-01-08T07:35:19.464Z,2.80
2023-01-08T07:38:22.730Z,2.90
2023-01-08T07:41:25.873Z,3.00
2023-01-08T07:44:29.074Z,3.10
2023-01-08T07:47:32.305Z,3.20
2023-01-08T07:50:39.413Z,3.30
2023-01-08T07:53:43.935Z,3.50
2023-01-08T07:56:47.324Z,3.60
2023-01-08T07:59:50.500Z,3.70
2023-01-08T08:02:53.718Z,3.80
2023-01-08T08:05:58.287Z,3.80
2023-01-08T08:09:01.419Z,3.90
2023-01-08T08:12:04.880Z,3.90
2023-01-08T08:15:09.530Z,4.00
2023-01-08T08:18:12.759Z,4.10
2023-01-08T08:21:17.291Z,4.10
2023-01-08T08:24:20.426Z,4.20
2023-01-08T08:27:24.786Z,4.30
2023-01-08T08:30:29.208Z,4.30
2023-01-08T08:33:32.499Z,4.40
2023-01-08T08:36:37.082Z,4.40
2023-01-08T08:39:40.237Z,4.50
2023-01-08T08:42:43.428Z,4.60
2023-01-08T08:45:46.840Z,4.60
2023-01-08T08:48:50.051Z,4.70
2023-01-08T08:51:54.628Z,4.70
2023-01-08T08:54:57.819Z,4.70
2023-01-08T08:58:06.354Z,4.80
2023-01-08T09:01:09.728Z,4.90
2023-01-08T09:04:12.940Z,5.00
2023-01-08T09:07:17.907Z,5.10
2023-01-08T09:10:21.272Z,5.30
2023-01-08T09:13:24.685Z,5.40
2023-01-08T09:16:27.937Z,5.50
2023-01-08T09:19:31.154Z,5.60
2023-01-08T09:22:35.696Z,5.70
2023-01-08T09:25:39.455Z,5.80
2023-01-08T09:28:42.652Z,5.90
2023-01-08T09:31:46.795Z,6.10
2023-01-08T09:34:50.064Z,6.00
2023-01-08T09:37:55.208Z,5.90
2023-01-08T09:41:04.739Z,5.80
2023-01-08T09:44:08.737Z,5.60
2023-01-08T09:47:22.386Z,5.30
2023-01-08T09:50:28.882Z,5.20
2023-01-08T09:53:34.669Z,5.10
2023-01-08T09:56:38.733Z,4.90
2023-01-08T09:59:42.235Z,4.50
2023-01-08T10:02:46.253Z,4.60
2023-01-08T10:05:49.586Z,4.60
2023-01-08T10:08:54.267Z,4.70
2023-01-08T10:12:01.556Z,4.80
2023-01-08T10:15:07.673Z,4.90
2023-01-08T10:18:14.701Z,5.00
2023-01-08T10:21:19.107Z,5.20
2023-01-08T10:24:35.676Z,5.30
2023-01-08T10:27:47.584Z,5.50
2023-01-08T10:30:52.544Z,5.60
2023-01-08T10:33:55.741Z,5.60
2023-01-08T10:36:58.916Z,5.70
2023-01-08T10:40:08.918Z,5.80
2023-01-08T10:43:16.340Z,5.90
2023-01-08T10:46:24.245Z,6.00
2023-01-08T10:49:33.392Z,6.10
2023-01-08T10:52:36.745Z,6.20
2023-01-08T10:55:41.280Z,6.30
2023-01-08T10:58:44.747Z,6.40
2023-01-08T11:01:48.865Z,6.60
2023-01-08T11:04:53.450Z,6.70
2023-01-08T11:07:59.250Z,7.00
2023-01-08T11:11:03.965Z,7.30
2023-01-08T11:14:18.132Z,7.60
2023-01-08T11:17:21.409Z,7.90
2023-01-08T11:20:29.490Z,8.30
2023-01-08T11:23:32.836Z,8.90
2023-01-08T11:26:39.801Z,9.80
2023-01-08T11:29:46.853Z,10.20
2023-01-08T11:32:54.935Z,10.20
2023-01-08T11:36:05.807Z,9.50
2023-01-08T11:39:10.719Z,9.40
2023-01-08T11:42:35.048Z,10.40
2023-01-08T11:45:49.114Z,13.50
2023-01-08T11:49:15.066Z,17.30
2023-01-08T11:52:35.017Z,19.50
2023-01-08T11:55:49.330Z,20.30
2023-01-08T11:59:07.504Z,19.90
2023-01-08T12:02:22.268Z,20.00
2023-01-08T12:05:31.651Z,21.60
2023-01-08T12:08:42.408Z,21.90
2023-01-08T12:11:52.960Z,20.90
2023-01-08T12:15:10.808Z,19.50
2023-01-08T12:18:27.317Z,17.70
2023-01-08T12:21:33.784Z,16.60
2023-01-08T12:24:53.816Z,15.80
2023-01-08T12:28:16.797Z,15.00
2023-01-08T12:31:37.854Z,14.40
2023-01-08T12:34:50.657Z,13.80
2023-01-08T12:37:58.737Z,13.00
2023-01-08T12:41:06.114Z,12.60
2023-01-08T12:44:12.645Z,12.30
2023-01-08T12:47:22.197Z,12.00
2023-01-08T12:50:47.722Z,11.80
2023-01-08T12:53:59.291Z,11.70
2023-01-08T12:57:09.381Z,11.40
2023-01-08T13:00:20.792Z,10.90
2023-01-08T13:03:28.896Z,10.40
2023-01-08T13:06:32.520Z,10.10
2023-01-08T13:09:35.745Z,9.70
2023-01-08T13:12:43.682Z,9.60
2023-01-08T13:15:46.941Z,9.50
2023-01-08T13:18:56.801Z,9.50
2023-01-08T13:22:02.184Z,9.40
2023-01-08T13:25:33.015Z,9.30
2023-01-08T13:28:44.799Z,9.30
2023-01-08T13:31:48.005Z,9.30
2023-01-08T13:35:03.374Z,9.20
2023-01-08T13:38:14.918Z,9.10
2023-01-08T13:41:28.048Z,9.10
2023-01-08T13:44:34.557Z,9.00
2023-01-08T13:47:44.171Z,9.00
2023-01-08T13:50:49.075Z,8.90
2023-01-08T13:53:52.822Z,8.90
2023-01-08T13:57:04.163Z,8.90
2023-01-08T14:00:09.885Z,8.80
2023-01-08T14:03:23.933Z,8.80
2023-01-08T14:06:31.484Z,8.80
2023-01-08T14:09:34.809Z,8.70
2023-01-08T14:12:38.096Z,8.70
2023-01-08T14:15:41.400Z,8.60
2023-01-08T14:18:45.891Z,8.60
2023-01-08T14:21:51.897Z,8.60
2023-01-08T14:24:57.592Z,8.60
2023-01-08T14:28:03.007Z,8.50
2023-01-08T14:31:06.518Z,8.50
2023-01-08T14:34:11.629Z,8.50
2023-01-08T14:37:17.658Z,8.50
2023-01-08T14:40:31.171Z,8.50
2023-01-08T14:43:36.551Z,8.50
2023-01-08T14:46:39.738Z,8.40
2023-01-08T14:49:44.741Z,8.40
2023-01-08T14:52:50.657Z,8.40
2023-01-08T14:55:57.705Z,8.40
2023-01-08T14:59:01.525Z,8.30
2023-01-08T15:02:07.232Z,8.30
2023-01-08T15:05:20.569Z,8.30
2023-01-08T15:08:27.483Z,8.30
2023-01-08T15:11:32.591Z,8.30
2023-01-08T15:14:37.148Z,8.20
2023-01-08T15:17:42.148Z,8.20
2023-01-08T15:20:46.426Z,8.10
2023-01-08T15:23:54.832Z,7.90
2023-01-08T15:26:59.087Z,8.00
2023-01-08T15:30:04.119Z,8.00
2023-01-08T15:33:09.336Z,7.90
2023-01-08T15:36:12.683Z,7.90
2023-01-08T15:39:17.344Z,8.00
2023-01-08T15:42:40.444Z,8.00
2023-01-08T15:45:45.228Z,8.00
2023-01-08T15:48:48.424Z,8.00
2023-01-08T15:51:53.214Z,8.00
2023-01-08T15:54:58.604Z,8.00
2023-01-08T15:58:01.898Z,8.00
2023-01-08T16:01:05.642Z,8.00
2023-01-08T16:04:09.353Z,7.90
2023-01-08T16:07:12.974Z,7.90
2023-01-08T16:10:19.048Z,7.80
2023-01-08T16:13:22.393Z,7.80
2023-01-08T16:16:25.678Z,7.80
2023-01-08T16:19:31.914Z,7.80
2023-01-08T16:22:35.341Z,7.80
2023-01-08T16:25:41.886Z,7.80
2023-01-08T16:28:46.005Z,7.80
2023-01-08T16:31:50.537Z,7.70
2023-01-08T16:34:55.006Z,7.80
2023-01-08T16:37:58.920Z,7.70
2023-01-08T16:41:05.838Z,7.70
2023-01-08T16:44:18.189Z,7.70
2023-01-08T16:47:22.137Z,7.70
2023-01-08T16:50:26.145Z,7.60
2023-01-08T16:53:29.993Z,7.60
2023-01-08T16:56:35.031Z,7.70
2023-01-08T16:59:38.681Z,7.60
2023-01-08T17:02:42.160Z,7.60
2023-01-08T17:05:45.944Z,7.60
2023-01-08T17:08:49.886Z,7.50
2023-01-08T17:11:55.193Z,7.60
2023-01-08T17:14:58.658Z,7.60
2023-01-08T17:18:02.457Z,7.60
2023-01-08T17:21:06.518Z,7.60
2023-01-08T17:24:10.569Z,7.60
2023-01-08T17:27:15.529Z,7.60
2023-01-08T17:30:19.127Z,7.60
2023-01-08T17:33:22.625Z,7.60
2023-01-08T17:36:27.728Z,7.60
2023-01-08T17:39:31.710Z,7.50
2023-01-08T17:42:37.026Z,7.50
2023-01-08T17:45:40.861Z,7.50
2023-01-08T17:48:47.003Z,7.50
2023-01-08T17:55:10.214Z,7.40
2023-01-08T17:58:15.859Z,7.40
2023-01-08T18:01:20.051Z,7.40
2023-01-08T18:04:23.730Z,7.40
2023-01-08T18:07:27.746Z,7.40
2023-01-08T18:10:34.047Z,7.40
2023-01-08T18:13:40.841Z,7.40
2023-01-08T18:16:45.684Z,7.40
2023-01-08T18:19:49.866Z,7.40
2023-01-08T18:22:54.395Z,7.40
2023-01-08T18:25:58.571Z,7.40
2023-01-08T18:29:06.631Z,7.30
2023-01-08T18:32:10.694Z,7.30
2023-01-08T18:35:16.024Z,7.20
2023-01-08T18:38:20.058Z,7.10
2023-01-08T18:41:41.409Z,7.10
2023-01-08T18:44:46.733Z,7.00
2023-01-08T18:47:54.788Z,7.00
2023-01-08T18:51:03.852Z,7.00
2023-01-08T18:54:08.834Z,6.90
2023-01-08T18:57:12.904Z,6.90
2023-01-08T19:00:18.979Z,6.90
2023-01-08T19:03:22.769Z,6.90
2023-01-08T19:06:27.989Z,6.90
2023-01-08T19:09:31.703Z,6.90
2023-01-08T19:12:35.553Z,6.90
2023-01-08T19:15:41.359Z,6.80
2023-01-08T19:18:48.648Z,6.80
2023-01-08T19:21:52.728Z,6.70
2023-01-08T19:24:57.379Z,6.60
2023-01-08T19:28:01.132Z,6.60
2023-01-08T19:31:06.817Z,6.50
2023-01-08T19:34:13.332Z,6.50
2023-01-08T19:37:17.617Z,6.50
2023-01-08T19:40:21.469Z,6.50
2023-01-08T19:43:42.450Z,6.40
2023-01-08T19:46:48.110Z,6.40
2023-01-08T19:49:52.008Z,6.40
2023-01-08T19:52:56.938Z,6.40
2023-01-08T19:56:05.242Z,6.30
2023-01-08T19:59:09.981Z,6.30
2023-01-08T20:02:15.432Z,6.30
2023-01-08T20:05:22.130Z,6.30
2023-01-08T20:08:25.919Z,6.30
2023-01-08T20:11:30.939Z,6.20
2023-01-08T20:14:35.691Z,6.10
2023-01-08T20:17:42.853Z,6.10
2023-01-08T20:20:48.011Z,6.10
2023-01-08T20:23:59.164Z,6.10
2023-01-08T20:27:03.106Z,6.10
2023-01-08T20:30:09.124Z,6.10
2023-01-08T20:33:17.656Z,6.00
2023-01-08T20:36:24.296Z,6.00
2023-01-08T20:39:28.352Z,6.10
2023-01-08T20:42:34.649Z,6.10
2023-01-08T20:45:42.708Z,6.10
2023-01-08T20:48:48.346Z,6.00
2023-01-08T20:51:58.438Z,6.00
2023-01-08T20:55:03.296Z,6.10
2023-01-08T20:58:06.577Z,6.00
2023-01-08T21:01:12.417Z,6.00
2023-01-08T21:04:18.244Z,6.00
2023-01-08T21:07:21.559Z,6.00
2023-01-08T21:10:25.042Z,6.10
2023-01-08T21:13:28.336Z,6.10
2023-01-08T21:16:34.879Z,6.10
2023-01-08T21:19:39.569Z,6.10
2023-01-08T21:22:43.045Z,6.10
2023-01-08T21:25:46.708Z,6.10
2023-01-08T21:28:50.027Z,6.00
2023-01-08T21:31:53.360Z,6.00
2023-01-08T21:34:57.936Z,6.00
2023-01-08T21:38:01.080Z,6.10
2023-01-08T21:41:05.643Z,6.10
2023-01-08T21:44:30.698Z,6.10
2023-01-08T21:47:33.913Z,6.10
2023-01-08T21:50:38.481Z,6.00
2023-01-08T21:53:40.684Z,6.00
2023-01-08T21:56:43.846Z,6.00
2023-01-08T21:59:49.572Z,6.00
2023-01-08T22:02:52.717Z,6.10
2023-01-08T22:06:01.139Z,6.10
2023-01-08T22:09:04.415Z,6.10
2023-01-08T22:12:08.441Z,6.10
2023-01-08T22:15:12.191Z,6.10
2023-01-08T22:18:15.390Z,6.00
2023-01-08T22:21:19.977Z,6.10
2023-01-08T22:24:23.119Z,6.10
2023-01-08T22:27:26.284Z,6.10
2023-01-08T22:30:29.382Z,6.10
2023-01-08T22:33:32.553Z,6.10
2023-01-08T22:36:37.051Z,6.20
2023-01-08T22:39:40.201Z,6.20
2023-01-08T22:42:44.249Z,6.30
2023-01-08T22:45:53.569Z,6.30
2023-01-08T22:48:56.837Z,6.20
2023-01-08T22:52:01.395Z,6.30
2023-01-08T22:55:04.700Z,6.30
2023-01-08T22:58:08.518Z,6.30
2023-01-08T23:01:13.412Z,6.40
2023-01-08T23:04:16.695Z,6.40
2023-01-08T23:07:21.985Z,6.50
2023-01-08T23:10:25.367Z,6.50
2023-01-08T23:13:28.575Z,6.50
2023-01-08T23:16:31.831Z,6.50
2023-01-08T23:19:35.087Z,6.60
2023-01-08T23:22:39.901Z,6.60
2023-01-08T23:25:43.053Z,6.60
2023-01-08T23:28:48.301Z,6.70
2023-01-08T23:31:51.493Z,6.60
2023-01-08T23:34:54.811Z,6.60
2023-01-08T23:37:59.317Z,6.60
2023-01-08T23:41:05.785Z,6.60
2023-01-08T23:44:12.144Z,6.70
2023-01-08T23:47:15.304Z,6.60
2023-01-08T23:50:18.673Z,6.60
2023-01-08T23:53:23.245Z,6.60
2023-01-08T23:56:26.763Z,6.60
2023-01-08T23:59:30.044Z,6.60
